createdAt,value
2019-02-14T00:01:43.346Z,80.36
2019-02-14T00:04:25.573Z,80.60
2019-02-14T00:06:59.406Z,80.80
2019-02-14T00:09:33.203Z,80.82
2019-02-14T00:12:06.904Z,80.95
2019-02-14T00:14:52.429Z,81.21
2019-02-14T00:17:26.744Z,81.26
2019-02-14T00:20:00.410Z,81.35
2019-02-14T00:22:34.355Z,81.23
2019-02-14T00:25:08.382Z,81.18
2019-02-14T00:27:51.633Z,81.20
2019-02-14T00:30:33.990Z,81.29
2019-02-14T00:33:16.765Z,81.43
2019-02-14T00:35:50.138Z,81.42
2019-02-14T00:38:24.689Z,81.52
2019-02-14T00:40:58.480Z,81.60
2019-02-14T00:43:31.994Z,81.93
2019-02-14T00:46:06.072Z,82.08
2019-02-14T00:48:39.459Z,82.02
2019-02-14T00:51:12.899Z,82.08
2019-02-14T00:53:46.633Z,82.14
2019-02-14T00:56:20.394Z,82.13
2019-02-14T00:58:53.772Z,82.06
2019-02-14T01:01:27.227Z,82.07
2019-02-14T01:04:01.277Z,82.07
2019-02-14T01:06:34.384Z,81.90
2019-02-14T01:09:07.492Z,81.90
2019-02-14T01:11:50.134Z,81.86
2019-02-14T01:14:33.189Z,81.74
2019-02-14T01:17:06.626Z,81.56
2019-02-14T01:19:39.176Z,81.52
2019-02-14T01:22:12.688Z,81.56
2019-02-14T01:24:45.868Z,81.64
2019-02-14T01:27:19.389Z,81.55
2019-02-14T01:29:53.560Z,81.48
2019-02-14T01:32:26.693Z,81.70
2019-02-14T01:34:59.791Z,82.08
2019-02-14T01:37:41.865Z,82.44
2019-02-14T01:40:16.129Z,82.55
2019-02-14T01:42:49.184Z,82.71
2019-02-14T01:45:23.073Z,82.82
2019-02-14T01:48:05.596Z,82.90
2019-02-14T01:50:38.487Z,82.83
2019-02-14T01:53:12.821Z,82.80
2019-02-14T01:55:46.561Z,82.68
2019-02-14T01:58:29.491Z,82.59
2019-02-14T02:01:12.090Z,82.60
2019-02-14T02:03:46.396Z,82.48
2019-02-14T02:06:28.832Z,82.52
2019-02-14T02:09:18.016Z,82.51
2019-02-14T02:11:59.863Z,82.40
2019-02-14T02:14:32.939Z,82.25
2019-02-14T02:17:06.582Z,82.24
2019-02-14T02:19:40.097Z,82.26
2019-02-14T02:22:22.567Z,82.30
2019-02-14T02:25:05.422Z,82.31
2019-02-14T02:27:48.150Z,82.27
2019-02-14T02:30:20.455Z,82.31
2019-02-14T02:33:03.507Z,82.33
2019-02-14T02:35:36.906Z,82.26
2019-02-14T02:38:19.437Z,82.16
2019-02-14T02:41:02.151Z,82.02
2019-02-14T02:43:35.895Z,81.90
2019-02-14T02:46:18.381Z,81.77
2019-02-14T02:48:52.465Z,81.73
2019-02-14T02:51:26.986Z,81.57
2019-02-14T02:54:04.452Z,81.70
2019-02-14T02:56:48.408Z,81.91
2019-02-14T02:59:22.152Z,81.97
2019-02-14T03:01:55.260Z,81.95
2019-02-14T03:04:29.011Z,81.96
2019-02-14T03:07:02.152Z,82.07
2019-02-14T03:09:34.716Z,82.04
2019-02-14T03:12:09.348Z,81.99
2019-02-14T03:14:42.820Z,82.05
2019-02-14T03:17:16.549Z,82.03
2019-02-14T03:19:50.321Z,81.95
2019-02-14T03:22:24.053Z,81.83
2019-02-14T03:24:57.779Z,81.72
2019-02-14T03:27:31.199Z,81.77
2019-02-14T03:30:05.315Z,81.77
2019-02-14T03:32:39.272Z,81.71
2019-02-14T03:35:22.786Z,81.69
2019-02-14T03:37:56.212Z,81.66
2019-02-14T03:40:30.046Z,81.74
2019-02-14T03:43:03.466Z,81.85
2019-02-14T03:45:37.144Z,81.91
2019-02-14T03:48:10.894Z,81.97
2019-02-14T03:50:43.963Z,82.00
2019-02-14T03:53:32.843Z,82.02
2019-02-14T03:56:14.940Z,81.93
2019-02-14T03:58:48.072Z,81.91
2019-02-14T04:01:21.238Z,81.65
2019-02-14T04:04:03.180Z,81.44
2019-02-14T04:06:37.115Z,81.47
2019-02-14T04:09:10.939Z,81.63
2019-02-14T04:11:53.216Z,82.01
2019-02-14T04:14:26.734Z,82.23
2019-02-14T04:16:59.878Z,82.32
2019-02-14T04:19:33.265Z,82.27
2019-02-14T04:22:15.401Z,82.50
2019-02-14T04:24:48.930Z,82.44
2019-02-14T04:27:22.398Z,82.34
2019-02-14T04:29:56.231Z,82.14
2019-02-14T04:32:29.629Z,82.09
2019-02-14T04:35:03.341Z,81.86
2019-02-14T04:37:36.447Z,82.02
2019-02-14T04:40:11.026Z,82.15
2019-02-14T04:42:45.457Z,82.03
2019-02-14T04:45:19.517Z,82.18
2019-02-14T04:47:52.963Z,82.41
2019-02-14T04:50:26.446Z,82.61
2019-02-14T04:52:59.621Z,82.72
2019-02-14T04:55:33.043Z,82.68
2019-02-14T04:58:06.560Z,82.67
2019-02-14T05:00:49.255Z,82.55
2019-02-14T05:03:32.021Z,82.47
2019-02-14T05:06:14.587Z,82.38
2019-02-14T05:08:58.092Z,82.33
2019-02-14T05:11:31.214Z,82.30
2019-02-14T05:14:13.862Z,82.38
2019-02-14T05:16:57.070Z,82.46
2019-02-14T05:19:39.889Z,82.34
2019-02-14T05:22:22.117Z,82.33
2019-02-14T05:24:55.498Z,82.27
2019-02-14T05:27:28.945Z,81.98
2019-02-14T05:30:02.050Z,81.77
2019-02-14T05:32:35.813Z,81.66
2019-02-14T05:35:09.293Z,81.73
2019-02-14T05:37:51.600Z,81.89
2019-02-14T05:40:34.057Z,82.06
2019-02-14T05:43:16.850Z,82.26
2019-02-14T05:45:49.962Z,82.71
2019-02-14T05:48:23.402Z,82.89
2019-02-14T05:50:57.823Z,82.80
2019-02-14T05:53:31.340Z,82.90
2019-02-14T05:56:05.094Z,82.77
2019-02-14T05:58:38.787Z,82.56
2019-02-14T06:01:13.306Z,82.74
2019-02-14T06:03:46.800Z,83.03
2019-02-14T06:06:20.219Z,83.39
2019-02-14T06:08:54.602Z,83.63
2019-02-14T06:11:28.324Z,83.68
2019-02-14T06:14:01.708Z,83.72
2019-02-14T06:16:35.453Z,83.81
2019-02-14T06:19:08.887Z,83.58
2019-02-14T06:21:42.160Z,83.70
2019-02-14T06:24:15.582Z,83.78
2019-02-14T06:26:48.731Z,83.71
2019-02-14T06:29:31.009Z,83.62
2019-02-14T06:32:04.121Z,83.67
2019-02-14T06:34:37.877Z,83.71
2019-02-14T06:37:10.988Z,83.83
2019-02-14T06:39:44.117Z,83.87
2019-02-14T06:42:26.540Z,83.98
2019-02-14T06:45:00.164Z,84.07
2019-02-14T06:47:33.649Z,84.02
2019-02-14T06:50:06.651Z,83.89
2019-02-14T06:52:40.514Z,83.87
2019-02-14T06:55:14.011Z,83.88
2019-02-14T06:57:49.364Z,84.06
2019-02-14T07:00:22.930Z,84.37
2019-02-14T07:02:56.937Z,84.22
2019-02-14T07:05:34.276Z,83.92
2019-02-14T07:08:06.999Z,84.17
2019-02-14T07:10:40.792Z,84.58
2019-02-14T07:13:14.529Z,84.80
2019-02-14T07:15:47.622Z,84.93
2019-02-14T07:18:23.176Z,84.88
2019-02-14T07:20:57.017Z,84.43
2019-02-14T07:23:30.374Z,83.96
2019-02-14T07:26:04.932Z,83.65
2019-02-14T07:28:53.257Z,83.80
2019-02-14T07:31:36.014Z,83.90
2019-02-14T07:34:14.981Z,84.25
2019-02-14T07:36:59.539Z,84.41
2019-02-14T07:39:32.675Z,84.37
2019-02-14T07:42:06.123Z,84.22
2019-02-14T07:44:40.031Z,83.92
2019-02-14T07:47:13.095Z,83.77
2019-02-14T07:49:55.284Z,83.60
2019-02-14T07:52:28.680Z,83.28
2019-02-14T07:55:01.267Z,83.11
2019-02-14T07:57:44.837Z,83.10
2019-02-14T08:00:18.108Z,83.08
2019-02-14T08:02:51.211Z,83.09
2019-02-14T08:05:34.024Z,83.08
2019-02-14T08:08:20.941Z,82.71
2019-02-14T08:11:04.897Z,82.15
2019-02-14T08:13:47.649Z,82.08
2019-02-14T08:16:30.110Z,82.30
2019-02-14T08:19:03.209Z,82.02
2019-02-14T08:21:37.414Z,81.74
2019-02-14T08:24:10.841Z,81.72
2019-02-14T08:26:44.685Z,81.50
2019-02-14T08:29:18.881Z,81.23
2019-02-14T08:32:01.223Z,80.85
2019-02-14T08:34:49.434Z,80.51
2019-02-14T08:37:22.568Z,80.48
2019-02-14T08:40:05.375Z,80.23
2019-02-14T08:42:48.050Z,79.89
2019-02-14T08:45:21.252Z,79.75
2019-02-14T08:47:56.533Z,79.81
2019-02-14T08:50:29.942Z,79.51
2019-02-14T08:53:03.783Z,79.27
2019-02-14T08:55:37.331Z,79.38
2019-02-14T08:58:11.464Z,79.18
2019-02-14T09:00:45.454Z,78.73
2019-02-14T09:03:19.247Z,78.69
2019-02-14T09:05:53.061Z,78.44
2019-02-14T09:08:27.512Z,78.21
2019-02-14T09:11:09.867Z,78.14
2019-02-14T09:13:43.369Z,77.85
2019-02-14T09:16:16.904Z,77.43
2019-02-14T09:18:50.317Z,77.17
2019-02-14T09:21:25.792Z,76.77
2019-02-14T09:23:59.189Z,76.69
2019-02-14T09:26:32.859Z,76.55
2019-02-14T09:29:06.290Z,76.11
2019-02-14T09:31:39.798Z,76.15
2019-02-14T09:34:13.529Z,75.56
2019-02-14T09:36:49.465Z,74.92
2019-02-14T09:39:40.648Z,74.16
2019-02-14T09:42:08.263Z,73.91
2019-02-14T09:44:41.866Z,73.44
2019-02-14T09:47:16.046Z,72.89
2019-02-14T09:49:49.730Z,72.81
2019-02-14T09:52:23.460Z,72.58
2019-02-14T09:54:57.140Z,72.11
2019-02-14T09:57:39.579Z,71.84
2019-02-14T10:00:15.476Z,72.20
2019-02-14T10:02:57.928Z,72.04
2019-02-14T10:05:40.460Z,71.89
2019-02-14T10:08:14.377Z,72.48
2019-02-14T10:11:02.520Z,71.85
2019-02-14T10:13:36.137Z,70.99
2019-02-14T10:16:09.246Z,70.83
2019-02-14T10:18:51.703Z,70.56
2019-02-14T10:21:34.189Z,69.90
2019-02-14T10:24:08.134Z,70.01
2019-02-14T10:26:51.037Z,69.34
2019-02-14T10:29:33.516Z,68.28
2019-02-14T10:32:06.375Z,67.88
2019-02-14T10:34:39.842Z,68.04
2019-02-14T10:37:13.428Z,67.71
2019-02-14T10:39:46.502Z,67.20
2019-02-14T10:42:29.366Z,66.64
2019-02-14T10:45:14.182Z,66.80
2019-02-14T10:47:56.628Z,66.91
2019-02-14T10:50:39.494Z,66.17
2019-02-14T10:53:22.854Z,65.76
2019-02-14T10:55:56.845Z,65.59
2019-02-14T10:58:30.869Z,65.71
2019-02-14T11:01:04.791Z,65.35
2019-02-14T11:03:47.175Z,65.92
2019-02-14T11:06:20.903Z,65.57
2019-02-14T11:08:54.391Z,64.89
2019-02-14T11:11:28.819Z,65.13
2019-02-14T11:14:17.451Z,64.92
2019-02-14T11:16:51.822Z,64.84
2019-02-14T11:19:25.577Z,64.91
2019-02-14T11:21:59.087Z,64.35
2019-02-14T11:24:32.557Z,64.06
2019-02-14T11:27:04.590Z,63.67
2019-02-14T11:29:37.964Z,63.46
2019-02-14T11:32:11.466Z,62.94
2019-02-14T11:34:45.188Z,62.96
2019-02-14T11:37:19.076Z,62.08
2019-02-14T11:39:52.864Z,61.67
2019-02-14T11:42:26.672Z,60.80
2019-02-14T11:45:00.622Z,60.57
2019-02-14T11:47:45.511Z,59.51
2019-02-14T11:50:27.830Z,59.64
2019-02-14T11:53:00.970Z,58.08
2019-02-14T11:55:34.582Z,56.51
2019-02-14T11:58:08.796Z,56.93
2019-02-14T12:00:42.339Z,56.29
2019-02-14T12:03:16.056Z,56.92
2019-02-14T12:05:49.453Z,57.17
2019-02-14T12:08:22.535Z,56.94
2019-02-14T12:10:55.653Z,56.93
2019-02-14T12:13:39.608Z,56.46
2019-02-14T12:16:24.007Z,56.88
2019-02-14T12:18:57.163Z,56.64
2019-02-14T12:21:30.610Z,56.09
2019-02-14T12:24:04.430Z,54.32
2019-02-14T12:26:38.439Z,53.39
2019-02-14T12:29:10.789Z,53.28
2019-02-14T12:31:52.919Z,54.14
2019-02-14T12:34:26.060Z,52.84
2019-02-14T12:36:59.206Z,53.07
2019-02-14T12:39:42.184Z,53.86
2019-02-14T12:42:25.646Z,52.95
2019-02-14T12:44:59.128Z,52.22
2019-02-14T12:47:32.555Z,52.68
2019-02-14T12:50:06.396Z,52.64
2019-02-14T12:52:39.691Z,52.58
2019-02-14T12:55:15.007Z,50.83
2019-02-14T12:57:48.177Z,50.30
2019-02-14T13:00:22.262Z,49.68
2019-02-14T13:02:55.687Z,49.44
2019-02-14T13:05:29.432Z,49.21
2019-02-14T13:08:02.252Z,49.28
2019-02-14T13:10:34.612Z,50.57
2019-02-14T13:13:08.091Z,49.86
2019-02-14T13:15:41.522Z,49.99
2019-02-14T13:18:23.621Z,49.74
2019-02-14T13:20:57.441Z,49.35
2019-02-14T13:23:30.560Z,49.63
2019-02-14T13:26:04.017Z,49.25
2019-02-14T13:28:37.426Z,47.59
2019-02-14T13:31:10.926Z,48.06
2019-02-14T13:33:45.376Z,48.86
2019-02-14T13:36:18.801Z,48.57
2019-02-14T13:38:52.522Z,48.03
2019-02-14T13:41:31.051Z,47.04
2019-02-14T13:44:10.892Z,46.89
2019-02-14T13:46:53.332Z,46.98
2019-02-14T13:49:26.785Z,47.49
2019-02-14T13:52:00.219Z,47.17
2019-02-14T13:54:33.356Z,47.36
2019-02-14T13:57:06.832Z,47.66
2019-02-14T13:59:49.083Z,48.24
2019-02-14T14:02:22.223Z,48.57
2019-02-14T14:04:55.758Z,48.47
2019-02-14T14:07:29.562Z,48.72
2019-02-14T14:10:04.526Z,48.79
2019-02-14T14:12:38.569Z,47.69
2019-02-14T14:15:11.974Z,47.56
2019-02-14T14:17:45.390Z,47.51
2019-02-14T14:20:18.832Z,47.48
2019-02-14T14:22:52.400Z,46.62
2019-02-14T14:25:26.142Z,47.32
2019-02-14T14:27:59.561Z,47.30
2019-02-14T14:30:35.052Z,47.50
2019-02-14T14:33:08.194Z,47.97
2019-02-14T14:35:42.241Z,48.00
2019-02-14T14:38:16.011Z,48.50
2019-02-14T14:40:49.752Z,49.02
2019-02-14T14:43:40.447Z,48.95
2019-02-14T14:46:26.822Z,48.60
2019-02-14T14:49:03.185Z,48.24
2019-02-14T14:51:51.683Z,46.08
2019-02-14T14:54:26.095Z,46.34
2019-02-14T14:56:59.848Z,47.52
2019-02-14T14:59:33.409Z,48.20
2019-02-14T15:02:06.495Z,47.46
2019-02-14T15:04:48.698Z,47.93
2019-02-14T15:07:22.123Z,48.55
2019-02-14T15:09:57.555Z,48.17
2019-02-14T15:12:30.989Z,47.77
2019-02-14T15:15:04.349Z,48.21
2019-02-14T15:17:37.777Z,49.38
2019-02-14T15:20:10.915Z,48.58
2019-02-14T15:22:53.333Z,49.32
2019-02-14T15:25:35.857Z,49.48
2019-02-14T15:28:09.018Z,49.37
2019-02-14T15:30:42.932Z,48.87
2019-02-14T15:33:16.328Z,48.98
2019-02-14T15:35:49.420Z,49.20
2019-02-14T15:38:32.625Z,49.72
2019-02-14T15:41:15.854Z,50.53
2019-02-14T15:43:49.258Z,50.91
2019-02-14T15:46:22.409Z,51.23
2019-02-14T15:48:55.875Z,51.88
2019-02-14T15:51:39.408Z,51.47
2019-02-14T15:54:13.038Z,51.86
2019-02-14T15:56:46.164Z,51.65
2019-02-14T15:59:20.947Z,51.90
2019-02-14T16:01:54.224Z,52.01
2019-02-14T16:04:36.824Z,52.48
2019-02-14T16:07:09.918Z,52.49
2019-02-14T16:09:43.675Z,52.91
2019-02-14T16:12:19.559Z,53.33
2019-02-14T16:14:52.467Z,53.30
2019-02-14T16:17:25.944Z,53.65
2019-02-14T16:19:59.822Z,53.85
2019-02-14T16:22:32.901Z,54.27
2019-02-14T16:25:06.935Z,54.62
2019-02-14T16:27:40.221Z,54.76
2019-02-14T16:30:13.704Z,54.99
2019-02-14T16:32:48.002Z,55.32
2019-02-14T16:35:21.101Z,57.10
2019-02-14T16:37:53.938Z,57.32
2019-02-14T16:40:38.513Z,58.91
2019-02-14T16:43:11.278Z,58.49
2019-02-14T16:45:45.400Z,58.75
2019-02-14T16:48:18.853Z,59.49
2019-02-14T16:50:52.542Z,60.61
2019-02-14T16:53:27.590Z,61.18
2019-02-14T16:56:02.332Z,62.10
2019-02-14T16:58:36.498Z,62.88
2019-02-14T17:01:09.731Z,63.48
2019-02-14T17:03:43.719Z,64.22
2019-02-14T17:06:17.758Z,64.69
2019-02-14T17:09:07.315Z,64.89
2019-02-14T17:11:52.150Z,64.44
2019-02-14T17:14:34.545Z,64.73
2019-02-14T17:17:08.316Z,64.82
2019-02-14T17:19:51.382Z,64.99
2019-02-14T17:22:33.512Z,65.08
2019-02-14T17:25:07.354Z,65.82
2019-02-14T17:27:40.531Z,66.60
2019-02-14T17:30:13.934Z,66.95
2019-02-14T17:32:47.003Z,67.10
2019-02-14T17:35:29.595Z,68.00
2019-02-14T17:38:11.996Z,68.29
2019-02-14T17:40:46.312Z,68.48
2019-02-14T17:43:19.714Z,68.70
2019-02-14T17:46:02.275Z,68.53
2019-02-14T17:48:35.730Z,68.84
2019-02-14T17:51:09.229Z,69.19
2019-02-14T17:53:43.330Z,69.70
2019-02-14T17:56:25.842Z,69.88
2019-02-14T17:58:59.248Z,70.12
2019-02-14T18:01:34.264Z,70.04
2019-02-14T18:04:09.268Z,70.02
2019-02-14T18:06:42.923Z,70.05
2019-02-14T18:09:16.477Z,70.22
2019-02-14T18:11:50.244Z,70.54
2019-02-14T18:14:25.892Z,70.84
2019-02-14T18:17:00.290Z,71.10
2019-02-14T18:19:33.412Z,71.08
2019-02-14T18:22:15.842Z,70.85
2019-02-14T18:24:49.610Z,70.73
2019-02-14T18:27:24.736Z,70.57
2019-02-14T18:29:58.421Z,70.59
2019-02-14T18:32:31.659Z,70.72
2019-02-14T18:35:05.627Z,71.04
2019-02-14T18:37:38.719Z,71.48
2019-02-14T18:40:11.520Z,71.64
2019-02-14T18:43:01.477Z,71.70
2019-02-14T18:45:35.048Z,72.05
2019-02-14T18:48:10.463Z,72.12
2019-02-14T18:50:44.192Z,72.19
2019-02-14T18:53:18.586Z,72.17
2019-02-14T18:55:51.979Z,72.47
2019-02-14T18:58:26.703Z,72.56
2019-02-14T19:01:15.073Z,72.91
2019-02-14T19:03:48.495Z,73.06
2019-02-14T19:06:21.946Z,73.68
2019-02-14T19:08:55.077Z,73.71
2019-02-14T19:11:28.292Z,73.96
2019-02-14T19:14:11.005Z,74.37
2019-02-14T19:16:53.575Z,74.81
2019-02-14T19:19:27.026Z,75.08
2019-02-14T19:22:00.732Z,75.28
2019-02-14T19:24:34.496Z,75.10
2019-02-14T19:27:07.942Z,75.01
2019-02-14T19:29:41.120Z,75.01
2019-02-14T19:32:14.194Z,74.94
2019-02-14T19:34:56.662Z,75.01
2019-02-14T19:37:45.470Z,75.03
2019-02-14T19:40:28.618Z,75.10
2019-02-14T19:43:01.698Z,75.48
2019-02-14T19:45:36.765Z,76.13
2019-02-14T19:48:10.703Z,76.04
2019-02-14T19:50:53.966Z,76.21
2019-02-14T19:53:36.342Z,76.12
2019-02-14T19:56:09.807Z,75.95
2019-02-14T19:58:43.554Z,76.17
2019-02-14T20:01:26.583Z,76.34
2019-02-14T20:03:59.228Z,76.61
2019-02-14T20:06:34.047Z,76.93
2019-02-14T20:09:16.501Z,77.13
2019-02-14T20:11:58.937Z,77.22
2019-02-14T20:14:32.069Z,76.98
2019-02-14T20:17:05.769Z,76.85
2019-02-14T20:19:39.566Z,76.83
2019-02-14T20:22:12.652Z,76.84
2019-02-14T20:24:45.822Z,76.94
2019-02-14T20:27:32.555Z,77.33
2019-02-14T20:30:05.406Z,77.35
2019-02-14T20:32:50.448Z,77.42
2019-02-14T20:35:23.543Z,77.35
2019-02-14T20:37:56.659Z,77.34
2019-02-14T20:40:28.703Z,77.77
2019-02-14T20:43:01.732Z,78.30
2019-02-14T20:45:35.413Z,78.40
2019-02-14T20:48:08.885Z,78.21
2019-02-14T20:50:42.683Z,78.08
2019-02-14T20:53:27.196Z,77.99
2019-02-14T20:56:00.629Z,78.13
2019-02-14T20:58:34.083Z,78.11
2019-02-14T21:01:10.113Z,78.01
2019-02-14T21:03:52.432Z,77.92
2019-02-14T21:06:26.134Z,77.91
2019-02-14T21:09:00.575Z,78.24
2019-02-14T21:11:36.010Z,78.43
2019-02-14T21:14:09.241Z,78.14
2019-02-14T21:16:42.769Z,77.74
2019-02-14T21:19:31.221Z,77.64
2019-02-14T21:22:18.567Z,77.91
2019-02-14T21:24:50.227Z,78.06
2019-02-14T21:27:23.358Z,77.99
2019-02-14T21:29:57.322Z,78.14
2019-02-14T21:32:30.392Z,78.40
2019-02-14T21:35:13.058Z,78.37
2019-02-14T21:37:55.876Z,78.35
2019-02-14T21:40:29.109Z,78.38
2019-02-14T21:43:02.695Z,78.45
2019-02-14T21:45:36.048Z,78.28
2019-02-14T21:48:09.565Z,78.16
2019-02-14T21:50:43.898Z,78.28
2019-02-14T21:53:17.165Z,78.43
2019-02-14T21:55:50.706Z,78.57
2019-02-14T21:58:24.652Z,78.78
2019-02-14T22:00:57.806Z,79.04
2019-02-14T22:03:31.614Z,79.10
2019-02-14T22:06:05.230Z,78.91
2019-02-14T22:08:39.044Z,79.26
2019-02-14T22:11:12.458Z,79.56
2019-02-14T22:13:46.033Z,79.45
2019-02-14T22:16:19.267Z,79.41
2019-02-14T22:18:52.852Z,79.42
2019-02-14T22:21:39.449Z,79.40
2019-02-14T22:24:12.630Z,79.60
2019-02-14T22:26:46.191Z,79.67
2019-02-14T22:29:19.933Z,79.75
2019-02-14T22:31:53.404Z,79.79
2019-02-14T22:34:27.332Z,79.96
2019-02-14T22:37:01.177Z,80.14
2019-02-14T22:39:34.373Z,80.36
2019-02-14T22:42:08.218Z,80.37
2019-02-14T22:44:41.381Z,80.26
2019-02-14T22:47:15.536Z,79.85
2019-02-14T22:49:49.066Z,79.79
2019-02-14T22:52:24.261Z,79.62
2019-02-14T22:54:58.002Z,79.63
2019-02-14T22:57:32.105Z,79.49
2019-02-14T23:00:12.195Z,79.36
2019-02-14T23:02:46.449Z,79.76
2019-02-14T23:05:19.610Z,80.33
2019-02-14T23:07:52.066Z,80.60
2019-02-14T23:10:27.030Z,80.75
2019-02-14T23:13:00.172Z,80.89
2019-02-14T23:15:42.761Z,80.86
2019-02-14T23:18:26.253Z,80.72
2019-02-14T23:20:59.375Z,80.61
2019-02-14T23:23:32.886Z,80.83
2019-02-14T23:26:06.168Z,80.51
2019-02-14T23:28:40.082Z,80.34
2019-02-14T23:31:13.585Z,80.26
2019-02-14T23:33:46.649Z,80.29
2019-02-14T23:36:29.471Z,80.51
2019-02-14T23:39:12.323Z,80.54
2019-02-14T23:41:54.938Z,80.46
2019-02-14T23:44:37.570Z,80.27
2019-02-14T23:47:11.133Z,80.29
2019-02-14T23:49:44.250Z,80.48
2019-02-14T23:52:17.801Z,80.73
2019-02-14T23:54:51.195Z,80.82
2019-02-14T23:57:35.136Z,80.47
